Time;durP1;ratioP1;P1;durP2;ratioP2;P2;SDS_P1;SDS_P2;PMS_P1;PMS_P2;Temp;Humidity;BMP_temperature;BMP_pressure;BME280_temperature;BME280_humidity;BME280_pressure;Samples;Min_cycle;Max_cycle;Signal;HPM_P1;HPM_P2
2022/11/28 00:01:07;;;;;;;28.02;17.45;;;;;;;0.64;100.00;96590.56;5057563;28;20048;-69
2022/11/28 00:03:33;;;;;;;;;;;;;;;0.68;100.00;96578.06;5060794;28;20389;-71
2022/11/28 00:06:03;;;;;;;28.88;17.25;;;;;;;0.67;100.00;96579.19;5050548;28;19922;-71
2022/11/28 00:08:29;;;;;;;25.00;15.40;;;;;;;0.78;100.00;96577.06;5043895;28;20051;-70
2022/11/28 00:10:55;;;;;;;25.70;15.50;;;;;;;0.86;100.00;96611.34;5060331;28;20382;-71
2022/11/28 00:13:20;;;;;;;26.67;15.68;;;;;;;1.09;100.00;96602.16;5056465;28;20048;-70
2022/11/28 00:15:54;;;;;;;23.55;14.30;;;;;;;1.19;100.00;96600.31;5062655;28;20044;-73
2022/11/28 00:18:19;;;;;;;25.92;15.52;;;;;;;1.11;100.00;96583.75;5060620;28;20044;-72
2022/11/28 00:20:45;;;;;;;20.08;13.52;;;;;;;0.98;100.00;96589.25;5063700;28;20037;-70
2022/11/28 00:23:10;;;;;;;21.50;14.05;;;;;;;1.03;100.00;96589.13;5058786;28;20036;-69
2022/11/28 00:25:35;;;;;;;23.17;14.63;;;;;;;0.91;100.00;96576.97;5064494;28;20048;-73
2022/11/28 00:28:01;;;;;;;22.67;14.75;;;;;;;0.92;100.00;96581.28;5064075;28;20770;-71
2022/11/28 00:30:26;;;;;;;21.67;14.48;;;;;;;0.91;100.00;96587.75;5060746;28;20052;-71
2022/11/28 00:32:52;;;;;;;24.65;15.40;;;;;;;0.85;100.00;96589.00;5062384;28;20069;-70
2022/11/28 00:35:17;;;;;;;21.75;15.60;;;;;;;0.83;100.00;96579.59;5059450;28;20063;-69
2022/11/28 00:37:43;;;;;;;26.25;15.88;;;;;;;0.81;100.00;96563.75;5064483;28;20041;-69
2022/11/28 00:40:08;;;;;;;23.77;15.13;;;;;;;0.91;100.00;96570.78;5058596;28;20029;-70
2022/11/28 00:42:34;;;;;;;23.08;15.07;;;;;;;1.02;100.00;96565.94;5063954;28;20448;-70
2022/11/28 00:44:59;;;;;;;23.13;14.27;;;;;;;1.21;100.00;96571.16;5063465;28;20562;-72
2022/11/28 00:47:24;;;;;;;23.65;14.38;;;;;;;1.39;100.00;96578.22;5058947;28;20036;-71
2022/11/28 00:49:50;;;;;;;24.08;14.27;;;;;;;1.45;100.00;96568.09;5064325;28;20037;-71
2022/11/28 00:52:15;;;;;;;18.90;12.88;;;;;;;1.49;100.00;96577.16;5058525;28;20071;-71
2022/11/28 00:54:41;;;;;;;19.65;12.68;;;;;;;1.54;100.00;96566.22;5061824;28;20042;-72
2022/11/28 00:57:06;;;;;;;19.15;12.68;;;;;;;1.70;100.00;96567.38;5038202;28;20512;-69
2022/11/28 00:59:31;;;;;;;19.05;12.80;;;;;;;1.41;100.00;96557.09;5062901;28;20045;-71
2022/11/28 01:01:57;;;;;;;19.20;13.15;;;;;;;1.53;100.00;96548.41;5063042;28;20768;-71
2022/11/28 01:04:22;;;;;;;18.27;12.93;;;;;;;1.31;100.00;96549.28;5058154;28;20443;-70
2022/11/28 01:06:49;;;;;;;19.42;12.20;;;;;;;1.39;100.00;96559.31;5045095;28;20052;-71
2022/11/28 01:09:18;;;;;;;17.05;11.40;;;;;;;1.51;100.00;96559.53;5058003;28;20048;-70
2022/11/28 01:11:47;;;;;;;16.60;11.75;;;;;;;1.48;100.00;96560.16;5045910;28;20052;-71
2022/11/28 01:14:15;;;;;;;16.97;11.53;;;;;;;1.55;100.00;96550.81;5041963;28;20181;-71
2022/11/28 01:16:41;;;;;;;19.17;12.40;;;;;;;1.71;100.00;96552.78;5064050;28;20443;-72
2022/11/28 01:19:07;;;;;;;19.60;13.13;;;;;;;1.78;100.00;96559.63;5058607;28;20033;-69
2022/11/28 01:21:32;;;;;;;18.75;12.23;;;;;;;1.79;100.00;96562.03;5062861;28;20037;-72
2022/11/28 01:23:58;;;;;;;19.38;12.82;;;;;;;1.80;100.00;96552.81;5064392;28;20036;-72
2022/11/28 01:26:28;;;;;;;20.50;12.60;;;;;;;1.80;100.00;96544.72;5058622;28;20508;-71
2022/11/28 01:28:55;;;;;;;21.58;12.88;;;;;;;1.76;100.00;96553.75;5063367;28;20047;-71
2022/11/28 01:31:23;;;;;;;18.90;13.07;;;;;;;1.67;100.00;96542.91;5071362;28;20037;-69
2022/11/28 01:33:49;;;;;;;21.42;14.45;;;;;;;1.37;100.00;96542.66;5083088;28;20037;-70
2022/11/28 01:36:16;;;;;;;23.52;15.43;;;;;;;1.04;100.00;96521.38;5066044;28;20102;-69
2022/11/28 01:38:42;;;;;;;27.80;17.15;;;;;;;0.88;100.00;96529.06;5062706;28;20048;-71
2022/11/28 01:41:07;;;;;;;27.25;15.38;;;;;;;0.89;100.00;96532.56;5057434;28;20448;-69
2022/11/28 01:43:33;;;;;;;24.90;15.48;;;;;;;1.06;100.00;96529.97;5062473;28;20041;-71
2022/11/28 01:45:59;;;;;;;24.02;15.75;;;;;;;1.11;100.00;96529.81;5061997;28;20071;-71
2022/11/28 01:48:40;;;;;;;30.35;16.73;;;;;;;0.97;100.00;96526.41;5039314;28;20029;-71
2022/11/28 01:51:08;;;;;;;28.90;17.15;;;;;;;0.88;100.00;96522.84;5055269;28;20580;-70
2022/11/28 01:53:39;;;;;;;26.92;16.30;;;;;;;0.89;100.00;96521.75;5062653;28;20055;-70
2022/11/28 01:56:12;;;;;;;25.10;16.17;;;;;;;0.91;100.00;96519.56;5056322;28;20045;-69
2022/11/28 01:58:42;;;;;;;24.83;15.70;;;;;;;1.00;100.00;96525.00;5062162;28;20047;-71
2022/11/28 02:01:09;;;;;;;24.52;15.35;;;;;;;1.10;100.00;96522.06;5037203;28;20490;-69
2022/11/28 02:03:42;;;;;;;32.33;17.55;;;;;;;1.14;100.00;96517.63;5043643;28;20384;-71
2022/11/28 02:06:09;;;;;;;25.00;15.45;;;;;;;1.16;100.00;96511.91;5053582;28;20071;-72
2022/11/28 02:08:35;;;;;;;24.95;15.30;;;;;;;1.16;100.00;96511.91;5061951;28;20033;-69
2022/11/28 02:11:22;;;;;;;27.98;16.13;;;;;;;1.15;100.00;96513.81;5061937;28;20041;-70
2022/11/28 02:14:09;;;;;;;24.05;15.15;;;;;;;1.22;100.00;96521.47;5061349;28;20044;-70
2022/11/28 02:16:53;;;;;;;24.73;15.95;;;;;;;1.30;100.00;96516.09;5043562;28;20090;-69
2022/11/28 02:19:42;;;;;;;24.02;14.93;;;;;;;1.30;100.00;96513.41;5057769;28;20063;-70
2022/11/28 02:22:28;;;;;;;22.55;15.48;;;;;;;1.38;100.00;96521.84;5044108;28;20060;-69
2022/11/28 02:25:24;;;;;;;26.38;16.35;;;;;;;1.43;100.00;96517.09;5061322;28;20043;-71
2022/11/28 02:28:11;;;;;;;23.98;15.07;;;;;;;1.57;100.00;96510.78;5046947;28;20044;-72
2022/11/28 02:31:15;;;;;;;20.65;13.43;;;;;;;1.55;100.00;96503.03;5061831;28;20040;-72
2022/11/28 02:34:10;;;;;;;28.80;14.75;;;;;;;1.44;100.00;96509.81;5038986;28;20041;-72
2022/11/28 02:36:49;;;;;;;22.25;14.00;;;;;;;1.56;100.00;96507.31;5042696;28;20056;-71
2022/11/28 02:39:45;;;;;;;21.27;13.45;;;;;;;1.55;100.00;96503.03;5055935;28;20248;-72
2022/11/28 02:42:24;;;;;;;22.33;14.20;;;;;;;1.60;100.00;96502.06;5055561;28;20048;-69
2022/11/28 02:45:21;;;;;;;22.13;14.38;;;;;;;1.53;100.00;96507.94;5060939;28;20047;-70
2022/11/28 02:48:02;;;;;;;24.75;14.43;;;;;;;1.47;100.00;96509.97;5005262;28;20044;-69
2022/11/28 02:50:55;;;;;;;23.45;14.60;;;;;;;1.50;100.00;96503.97;5058423;28;20080;-71
2022/11/28 02:53:24;;;;;;;24.48;14.68;;;;;;;1.52;100.00;96496.34;5056075;28;20062;-71
2022/11/28 02:55:51;;;;;;;24.33;14.90;;;;;;;1.56;100.00;96495.72;5042994;28;20470;-72
2022/11/28 02:58:17;;;;;;;19.73;13.45;;;;;;;1.60;100.00;96491.28;5056319;28;20032;-72
2022/11/28 03:00:45;;;;;;;23.60;12.80;;;;;;;1.63;100.00;96501.47;5061330;28;20036;-70
2022/11/28 03:03:41;;;;;;;22.15;13.80;;;;;;;1.59;100.00;96497.81;5056226;28;20055;-70
2022/11/28 03:06:44;;;;;;;20.17;12.65;;;;;;;1.58;100.00;96498.91;5056194;28;20093;-70
2022/11/28 03:09:21;;;;;;;19.77;13.40;;;;;;;1.59;100.00;96506.69;5036096;28;20041;-70
2022/11/28 03:11:53;;;;;;;25.52;13.70;;;;;;;1.61;100.00;96503.69;5041132;28;20037;-71
2022/11/28 03:14:36;;;;;;;20.15;12.63;;;;;;;1.45;100.00;96506.00;5035143;28;20033;-70
2022/11/28 03:17:14;;;;;;;22.13;13.75;;;;;;;1.38;100.00;96494.88;5040071;28;20047;-67
2022/11/28 03:19:48;;;;;;;22.80;15.07;;;;;;;1.03;100.00;96494.72;5035740;28;20059;-69
2022/11/28 03:22:27;;;;;;;25.05;15.77;;;;;;;0.84;100.00;96487.63;5036391;28;20075;-71
2022/11/28 03:25:03;;;;;;;25.63;15.85;;;;;;;0.70;100.00;96479.63;5060774;28;20047;-68
2022/11/28 03:27:45;;;;;;;27.75;17.00;;;;;;;0.65;100.00;96482.44;5058836;28;20515;-70
2022/11/28 03:30:20;;;;;;;29.48;17.55;;;;;;;0.61;100.00;96484.16;5055929;28;20059;-69
2022/11/28 03:32:51;;;;;;;31.50;17.95;;;;;;;0.61;100.00;96470.66;5060477;28;20090;-69
2022/11/28 03:35:19;;;;;;;28.38;17.83;;;;;;;0.63;100.00;96470.38;5058037;28;20045;-69
2022/11/28 03:37:50;;;;;;;32.22;18.98;;;;;;;0.62;100.00;96474.19;5063658;28;20373;-70
2022/11/28 03:40:23;;;;;;;33.03;18.30;;;;;;;0.64;100.00;96483.53;5059786;28;20509;-70
2022/11/28 03:42:56;;;;;;;28.98;18.13;;;;;;;0.65;100.00;96477.06;5064847;28;20056;-71
2022/11/28 03:45:25;;;;;;;27.73;17.70;;;;;;;0.77;100.00;96476.47;5055781;28;20073;-69
2022/11/28 03:48:01;;;;;;;29.60;17.13;;;;;;;0.80;100.00;96470.47;5061002;28;20040;-70
2022/11/28 03:50:42;;;;;;;28.85;18.17;;;;;;;0.58;100.00;96468.63;5057528;28;20044;-71
2022/11/28 03:53:16;;;;;;;34.35;19.33;;;;;;;0.53;100.00;96474.91;5057293;28;20040;-70
2022/11/28 03:56:00;;;;;;;29.42;18.05;;;;;;;0.45;100.00;96466.75;5064615;28;20110;-68
2022/11/28 03:58:35;;;;;;;35.45;19.80;;;;;;;0.44;100.00;96462.50;5059567;28;20047;-70
2022/11/28 04:01:27;;;;;;;33.80;20.50;;;;;;;0.37;100.00;96452.13;5063427;28;20540;-70
2022/11/28 04:04:12;;;;;;;31.85;20.73;;;;;;;0.38;100.00;96441.06;5063190;28;20052;-70
2022/11/28 04:06:56;;;;;;;35.20;21.70;;;;;;;0.40;100.00;96435.38;5047303;28;20036;-70
2022/11/28 04:09:42;;;;;;;33.65;19.92;;;;;;;0.43;100.00;96433.94;5058576;28;20109;-71
2022/11/28 04:12:49;;;;;;;32.70;20.35;;;;;;;0.47;100.00;96438.44;5059652;28;20036;-70
2022/11/28 04:15:43;;;;;;;34.17;19.60;;;;;;;0.53;100.00;96441.78;5059058;28;20040;-68
2022/11/28 04:18:28;;;;;;;31.88;18.88;;;;;;;0.52;100.00;96435.59;5032941;28;20474;-69
2022/11/28 04:21:08;;;;;;;32.15;19.02;;;;;;;0.53;100.00;96436.41;5064176;28;20464;-69
2022/11/28 04:23:36;;;;;;;32.78;18.55;;;;;;;0.54;100.00;96429.88;5063932;28;20045;-68
2022/11/28 04:26:12;;;;;;;28.48;17.85;;;;;;;0.56;100.00;96436.56;5062669;28;20040;-71
2022/11/28 04:28:38;;;;;;;24.85;16.83;;;;;;;0.60;100.00;96444.06;5063506;28;20397;-71
2022/11/28 04:31:06;;;;;;;26.95;17.25;;;;;;;0.71;100.00;96437.28;5042047;28;20044;-68
2022/11/28 04:33:36;;;;;;;25.17;17.25;;;;;;;0.89;100.00;96447.06;5062181;28;20045;-71
2022/11/28 04:36:04;;;;;;;26.00;16.25;;;;;;;1.09;100.00;96442.22;5062408;28;20043;-70
2022/11/28 04:38:32;;;;;;;24.63;16.15;;;;;;;0.94;100.00;96428.03;5062652;28;20044;-69
2022/11/28 04:41:21;;;;;;;25.50;16.58;;;;;;;0.76;100.00;96426.38;5063608;28;20033;-69
2022/11/28 04:43:57;;;;;;;25.58;16.05;;;;;;;0.74;100.00;96432.06;5028768;28;20068;-70
2022/11/28 04:46:29;;;;;;;23.42;15.65;;;;;;;0.77;100.00;96433.34;5042197;28;20048;-70
2022/11/28 04:48:54;;;;;;;32.92;17.50;;;;;;;0.75;100.00;96433.66;5063948;28;20052;-71
2022/11/28 04:51:26;;;;;;;26.77;17.10;;;;;;;0.83;100.00;96434.81;5057196;28;20033;-71
2022/11/28 04:54:06;;;;;;;25.75;16.00;;;;;;;1.07;100.00;96431.75;5063096;28;20130;-70
2022/11/28 04:56:44;;;;;;;22.60;14.77;;;;;;;1.19;100.00;96427.66;5060715;28;20040;-71
2022/11/28 04:59:12;;;;;;;22.75;14.18;;;;;;;1.19;100.00;96428.47;5057252;28;20094;-71
2022/11/28 05:01:40;;;;;;;23.05;15.43;;;;;;;1.11;100.00;96434.63;5063490;28;20574;-70
2022/11/28 05:04:06;;;;;;;21.38;14.40;;;;;;;1.14;100.00;96434.78;5057711;28;20052;-70
2022/11/28 05:06:34;;;;;;;19.27;13.20;;;;;;;1.19;100.00;96427.66;5061578;28;20052;-70
2022/11/28 05:08:59;;;;;;;20.42;14.00;;;;;;;1.00;100.00;96434.09;5061848;28;20040;-70
2022/11/28 05:11:25;;;;;;;25.60;15.13;;;;;;;0.91;100.00;96433.25;5039581;28;20063;-70
2022/11/28 05:13:51;;;;;;;20.50;14.15;;;;;;;0.95;100.00;96439.63;5045139;28;20052;-69
2022/11/28 05:16:16;;;;;;;21.10;14.50;;;;;;;1.06;100.00;96430.16;5057440;28;20374;-68
2022/11/28 05:18:42;;;;;;;22.40;14.43;;;;;;;1.07;100.00;96433.66;5062925;28;20032;-68
2022/11/28 05:21:09;;;;;;;19.77;13.75;;;;;;;1.16;100.00;96433.69;5055820;28;20363;-69
2022/11/28 05:23:39;;;;;;;24.50;14.77;;;;;;;1.08;100.00;96429.84;5063707;28;20044;-70
2022/11/28 05:26:09;;;;;;;20.45;13.98;;;;;;;1.07;100.00;96428.25;5059326;28;20123;-68
2022/11/28 05:28:36;;;;;;;21.80;15.07;;;;;;;1.13;100.00;96427.81;5044679;28;20037;-68
2022/11/28 05:31:02;;;;;;;21.52;14.15;;;;;;;1.29;100.00;96424.69;5062606;28;20037;-70
2022/11/28 05:33:29;;;;;;;19.77;13.48;;;;;;;1.43;100.00;96433.44;5059008;28;20485;-69
2022/11/28 05:35:56;;;;;;;19.30;13.25;;;;;;;1.52;100.00;96428.06;5062632;28;20103;-70
2022/11/28 05:38:22;;;;;;;18.42;12.75;;;;;;;1.58;100.00;96429.50;5057962;28;20486;-69
2022/11/28 05:40:47;;;;;;;18.48;13.07;;;;;;;1.62;100.00;96425.09;5062304;28;20436;-70
2022/11/28 05:43:13;;;;;;;19.17;12.73;;;;;;;1.64;100.00;96420.16;5057928;28;20045;-70
2022/11/28 05:45:42;;;;;;;20.23;12.35;;;;;;;1.66;100.00;96420.63;5062219;28;20039;-70
2022/11/28 05:48:08;;;;;;;18.77;13.18;;;;;;;1.74;100.00;96431.75;5059123;28;20052;-67
2022/11/28 05:50:33;;;;;;;19.98;13.18;;;;;;;1.79;100.00;96423.50;5064095;28;20045;-72
2022/11/28 05:52:59;;;;;;;15.68;11.40;;;;;;;1.78;100.00;96425.41;5044990;28;20047;-71
2022/11/28 05:55:24;;;;;;;18.17;12.55;;;;;;;1.68;100.00;96421.09;5057872;28;20061;-68
2022/11/28 05:57:49;;;;;;;17.65;12.20;;;;;;;1.66;100.00;96427.94;5062795;28;20036;-69
2022/11/28 06:00:15;;;;;;;18.80;12.65;;;;;;;1.67;100.00;96432.22;5038953;28;20093;-70
2022/11/28 06:02:41;;;;;;;16.52;12.07;;;;;;;1.70;100.00;96420.81;5044625;28;20068;-70
2022/11/28 06:05:06;;;;;;;18.30;12.60;;;;;;;1.78;100.00;96427.31;5056083;28;20470;-68
2022/11/28 06:07:32;;;;;;;21.90;12.98;;;;;;;1.83;100.00;96427.16;5061050;28;20041;-72
2022/11/28 06:09:57;;;;;;;22.60;12.77;;;;;;;1.89;100.00;96421.31;5059869;28;20051;-70
2022/11/28 06:12:22;;;;;;;15.82;11.82;;;;;;;1.90;100.00;96428.28;5056846;28;20156;-71
2022/11/28 06:14:51;;;;;;;18.10;12.32;;;;;;;1.88;100.00;96424.31;5043037;28;20067;-70
2022/11/28 06:17:16;;;;;;;21.15;12.15;;;;;;;1.92;100.00;96423.34;5037919;28;20051;-70
2022/11/28 06:19:41;;;;;;;18.58;11.98;;;;;;;1.87;100.00;96423.53;5061984;28;20397;-70
2022/11/28 06:22:08;;;;;;;18.30;11.82;;;;;;;1.93;100.00;96410.66;5038451;28;20048;-69
2022/11/28 06:24:33;;;;;;;17.42;11.60;;;;;;;1.92;100.00;96423.34;5057278;28;20492;-70
2022/11/28 06:26:58;;;;;;;17.40;12.45;;;;;;;1.83;100.00;96435.25;5057524;28;20120;-69
2022/11/28 06:29:24;;;;;;;18.02;11.85;;;;;;;1.88;100.00;96432.41;5056514;28;20501;-70
2022/11/28 06:31:49;;;;;;;24.45;12.63;;;;;;;1.89;100.00;96424.00;5062802;28;20036;-70
2022/11/28 06:34:15;;;;;;;19.80;12.52;;;;;;;1.84;100.00;96412.56;5057228;28;20094;-68
2022/11/28 06:36:47;;;;;;;18.42;11.75;;;;;;;1.82;100.00;96415.56;5029580;27;20424;-69
2022/11/28 06:39:14;;;;;;;18.98;12.20;;;;;;;1.85;100.00;96408.72;5030660;28;20414;-70
2022/11/28 06:41:41;;;;;;;24.70;12.70;;;;;;;1.85;100.00;96397.94;5039227;28;20962;-70
2022/11/28 06:44:06;;;;;;;26.33;13.68;;;;;;;1.81;100.00;96402.38;5024869;28;20041;-69
2022/11/28 06:46:32;;;;;;;21.95;14.45;;;;;;;1.81;100.00;96408.56;5016690;28;20207;-70
2022/11/28 06:48:57;;;;;;;23.13;14.30;;;;;;;1.80;100.00;96398.91;5018995;28;20045;-71
2022/11/28 06:51:22;;;;;;;20.63;14.18;;;;;;;1.69;100.00;96401.13;5012034;28;20578;-70
2022/11/28 06:53:49;;;;;;;20.23;12.80;;;;;;;1.64;100.00;96409.38;5020421;28;20049;-70
2022/11/28 06:56:17;;;;;;;22.55;14.05;;;;;;;1.49;100.00;96415.97;5011694;28;20065;-69
2022/11/28 06:58:43;;;;;;;19.05;13.18;;;;;;;1.52;100.00;96409.19;5020589;28;20429;-69
2022/11/28 07:01:14;;;;;;;20.52;14.10;;;;;;;1.61;100.00;96414.59;5012875;28;20409;-70
2022/11/28 07:03:40;;;;;;;21.40;14.32;;;;;;;1.64;100.00;96416.66;5019329;28;20041;-69
2022/11/28 07:06:07;;;;;;;22.35;14.32;;;;;;;1.68;100.00;96415.72;5012448;28;20682;-68
2022/11/28 07:08:33;;;;;;;21.08;14.07;;;;;;;1.80;100.00;96415.09;5018319;28;20054;-71
2022/11/28 07:11:07;;;;;;;21.42;13.73;;;;;;;1.86;100.00;96421.94;5000790;28;20075;-70
2022/11/28 07:13:32;;;;;;;24.73;13.48;;;;;;;1.91;100.00;96429.09;5010579;28;20065;-70
2022/11/28 07:15:58;;;;;;;23.02;13.73;;;;;;;1.88;100.00;96443.22;5017211;28;20483;-70
2022/11/28 07:18:23;;;;;;;21.58;12.82;;;;;;;1.80;100.00;96439.41;5011677;28;20505;-70
2022/11/28 07:20:48;;;;;;;25.95;14.57;;;;;;;1.74;100.00;96432.53;5017845;28;20572;-71
2022/11/28 07:23:14;;;;;;;28.75;15.27;;;;;;;1.68;100.00;96442.72;5012138;28;20045;-70
2022/11/28 07:25:39;;;;;;;26.58;14.90;;;;;;;1.63;100.00;96436.66;5017002;28;20042;-70
2022/11/28 07:28:05;;;;;;;24.15;15.27;;;;;;;1.66;100.00;96427.94;5012759;28;20042;-69
2022/11/28 07:30:30;;;;;;;22.70;13.57;;;;;;;1.67;100.00;96433.00;5017918;28;20402;-70
2022/11/28 07:32:55;;;;;;;21.90;12.98;;;;;;;1.63;100.00;96436.66;5018175;28;20044;-70
2022/11/28 07:35:21;;;;;;;19.00;13.05;;;;;;;1.57;100.00;96438.72;5013221;28;20307;-70
2022/11/28 07:37:46;;;;;;;21.65;13.80;;;;;;;1.19;100.00;96433.03;5016290;28;20042;-70
2022/11/28 07:40:12;;;;;;;20.02;13.13;;;;;;;1.09;100.00;96443.00;5010517;28;20040;-70
2022/11/28 07:42:37;;;;;;;28.30;15.93;;;;;;;0.93;100.00;96444.53;5016091;28;20104;-71
2022/11/28 07:45:04;;;;;;;25.40;16.50;;;;;;;0.96;100.00;96425.03;4997363;28;20506;-69
2022/11/28 07:47:29;;;;;;;27.30;16.52;;;;;;;0.94;100.00;96422.66;5008964;28;20054;-70
2022/11/28 07:49:55;;;;;;;30.80;17.95;;;;;;;0.98;100.00;96435.53;5003755;28;20560;-69
2022/11/28 07:52:20;;;;;;;26.55;16.98;;;;;;;1.04;100.00;96432.34;5003411;28;20038;-68
2022/11/28 07:54:48;;;;;;;28.60;17.98;;;;;;;1.15;100.00;96432.88;5015457;28;20038;-70
2022/11/28 07:57:13;;;;;;;27.15;17.92;;;;;;;1.20;100.00;96424.66;5003282;28;20045;-72
2022/11/28 07:59:39;;;;;;;29.48;16.38;;;;;;;1.35;100.00;96436.91;5003167;28;20056;-71
2022/11/28 08:02:04;;;;;;;30.00;18.20;;;;;;;1.25;100.00;96434.50;4997321;28;20045;-68
2022/11/28 08:04:29;;;;;;;33.30;18.02;;;;;;;1.02;100.00;96425.69;5001667;28;20049;-70
2022/11/28 08:06:55;;;;;;;123.32;63.92;;;;;;;0.93;100.00;96422.97;5003621;28;20034;-70
2022/11/28 08:09:21;;;;;;;39.13;23.52;;;;;;;1.02;100.00;96417.59;4999415;28;20065;-69
2022/11/28 08:11:48;;;;;;;36.65;22.52;;;;;;;1.11;100.00;96423.81;5003447;28;20038;-70
2022/11/28 08:14:13;;;;;;;34.90;21.13;;;;;;;1.13;100.00;96425.13;5000023;28;20041;-68
2022/11/28 08:16:43;;;;;;;34.60;20.70;;;;;;;1.12;100.00;96428.91;5003811;28;20053;-69
2022/11/28 08:19:09;;;;;;;45.80;27.60;;;;;;;1.13;100.00;96424.31;5000414;28;20487;-69
2022/11/28 08:21:35;;;;;;;42.70;25.98;;;;;;;1.16;100.00;96426.38;5000798;28;20100;-70
2022/11/28 08:24:02;;;;;;;36.35;23.08;;;;;;;1.27;100.00;96430.38;5005739;28;20046;-69
2022/11/28 08:26:29;;;;;;;41.08;23.98;;;;;;;1.33;100.00;96442.63;4980629;28;20046;-70
2022/11/28 08:28:55;;;;;;;37.53;23.73;;;;;;;1.46;100.00;96438.22;4986117;28;20046;-70
2022/11/28 08:31:26;;;;;;;41.28;24.50;;;;;;;1.73;100.00;96439.06;4982032;28;20057;-71
2022/11/28 08:33:53;;;;;;;37.00;23.08;;;;;;;2.08;100.00;96442.59;4987637;28;20038;-71
2022/11/28 08:36:20;;;;;;;36.05;22.52;;;;;;;2.27;100.00;96438.78;4981288;28;20439;-70
2022/11/28 08:38:46;;;;;;;35.78;23.42;;;;;;;2.07;100.00;96441.00;4986968;28;20407;-73
2022/11/28 08:41:14;;;;;;;37.10;25.83;;;;;;;1.98;100.00;96434.81;4982676;28;20042;-71
2022/11/28 08:43:39;;;;;;;38.92;23.10;;;;;;;2.05;100.00;96437.03;4987883;28;20046;-71
2022/11/28 08:46:11;;;;;;;35.58;21.85;;;;;;;2.20;100.00;96450.06;4964617;28;20100;-69
2022/11/28 08:48:37;;;;;;;32.28;19.85;;;;;;;2.37;100.00;96445.75;4986204;28;20054;-71
2022/11/28 08:51:03;;;;;;;36.20;21.77;;;;;;;2.45;100.00;96442.28;4990946;28;20069;-70
2022/11/28 08:53:29;;;;;;;33.75;20.67;;;;;;;2.61;100.00;96448.75;5005395;28;20061;-70
2022/11/28 08:55:55;;;;;;;43.80;25.48;;;;;;;2.72;100.00;96441.09;5004444;28;20276;-69
2022/11/28 08:58:21;;;;;;;32.97;19.85;;;;;;;2.70;100.00;96439.81;5002123;28;20121;-69
2022/11/28 09:00:46;;;;;;;34.65;21.00;;;;;;;2.70;100.00;96437.13;5004823;28;20726;-70
2022/11/28 09:03:17;;;;;;;30.30;19.13;;;;;;;2.80;100.00;96428.66;5000959;28;20487;-70
2022/11/28 09:05:45;;;;;;;33.40;20.13;;;;;;;2.85;100.00;96428.50;5003830;28;20077;-70
2022/11/28 09:08:18;;;;;;;50.97;32.00;;;;;;;2.73;100.00;96412.94;5001233;28;20513;-69
2022/11/28 09:10:44;;;;;;;44.70;29.77;;;;;;;2.64;100.00;96421.06;5006348;28;20046;-69
2022/11/28 09:13:13;;;;;;;42.15;26.30;;;;;;;2.80;100.00;96423.25;5032321;28;20083;-70
2022/11/28 09:15:43;;;;;;;45.00;27.98;;;;;;;2.85;100.00;96433.91;5031149;28;20094;-70
2022/11/28 09:18:11;;;;;;;35.53;22.73;;;;;;;3.06;100.00;96437.50;4979216;28;20097;-70
2022/11/28 09:20:37;;;;;;;31.50;21.45;;;;;;;3.34;100.00;96439.75;4985153;28;20092;-70
2022/11/28 09:23:02;;;;;;;31.70;23.20;;;;;;;3.61;100.00;96438.50;4981465;28;20132;-69
2022/11/28 09:25:28;;;;;;;28.80;19.08;;;;;;;3.73;100.00;96428.88;4998438;28;20046;-70
2022/11/28 09:27:53;;;;;;;31.23;21.67;;;;;;;3.93;100.00;96447.06;5002468;28;20038;-71
2022/11/28 09:30:21;;;;;;;35.50;21.73;;;;;;;4.00;100.00;96441.13;5000558;28;20057;-71
2022/11/28 09:32:48;;;;;;;27.65;19.27;;;;;;;3.83;100.00;96450.16;5004518;28;20447;-71
2022/11/28 09:35:14;;;;;;;25.95;17.80;;;;;;;3.89;100.00;96448.03;5000051;28;20041;-70
2022/11/28 09:37:39;;;;;;;27.73;17.65;;;;;;;4.13;100.00;96447.41;5004451;28;20525;-70
2022/11/28 09:40:05;;;;;;;28.20;17.40;;;;;;;4.50;100.00;96453.81;4997950;28;20151;-69
2022/11/28 09:42:38;;;;;;;22.88;15.98;;;;;;;4.80;100.00;96442.81;5003851;28;20050;-70
2022/11/28 09:45:13;;;;;;;25.63;16.98;;;;;;;5.08;100.00;96437.56;5007160;28;20066;-69
2022/11/28 09:47:44;;;;;;;26.27;17.45;;;;;;;5.30;100.00;96439.06;5005158;28;20042;-70
2022/11/28 09:50:19;;;;;;;25.23;15.48;;;;;;;5.20;100.00;96441.41;4982931;28;20514;-70
2022/11/28 09:52:53;;;;;;;29.50;20.02;;;;;;;5.07;100.00;96435.97;5004702;28;20049;-69
2022/11/28 09:55:36;;;;;;;24.05;16.08;;;;;;;5.09;100.00;96435.63;5001983;28;20088;-70
2022/11/28 09:58:23;;;;;;;31.98;20.45;;;;;;;4.48;100.00;96434.34;5005767;28;20053;-70
2022/11/28 10:01:30;;;;;;;33.03;21.83;;;;;;;4.51;100.00;96427.47;5008012;28;20380;-72
2022/11/28 10:04:04;;;;;;;25.20;16.77;;;;;;;4.30;100.00;96427.50;4981326;28;20103;-70
2022/11/28 10:06:35;;;;;;;29.67;20.73;;;;;;;4.47;100.00;96430.06;5033894;28;20115;-71
2022/11/28 10:09:19;;;;;;;31.17;20.95;;;;;;;4.49;100.00;96427.00;5004828;28;20107;-69
2022/11/28 10:12:12;;;;;;;33.72;19.80;;;;;;;4.53;100.00;96404.31;5036537;28;20562;-71
2022/11/28 10:14:41;;;;;;;29.38;18.88;;;;;;;4.70;100.00;96410.66;5003999;28;20056;-70
2022/11/28 10:17:36;;;;;;;27.58;17.77;;;;;;;4.59;100.00;96413.81;5000266;28;20048;-70
2022/11/28 10:20:22;;;;;;;28.80;19.23;;;;;;;4.58;100.00;96416.88;5004664;28;20126;-69
2022/11/28 10:23:00;;;;;;;26.80;17.13;;;;;;;4.87;100.00;96412.41;5004801;28;20145;-70
2022/11/28 10:25:30;;;;;;;27.17;18.15;;;;;;;4.56;100.00;96408.28;4999180;28;20128;-71
2022/11/28 10:27:56;;;;;;;33.00;20.35;;;;;;;4.42;100.00;96414.00;5004606;28;20050;-70
2022/11/28 10:30:32;;;;;;;32.53;20.30;;;;;;;4.61;100.00;96408.06;5000054;28;20407;-70
2022/11/28 10:33:20;;;;;;;31.83;19.65;;;;;;;4.68;100.00;96400.19;5002376;28;20046;-71
2022/11/28 10:35:50;;;;;;;29.67;19.40;;;;;;;4.84;100.00;96405.72;5017904;28;20049;-69
2022/11/28 10:38:16;;;;;;;28.25;18.88;;;;;;;4.97;100.00;96407.34;5000199;28;20042;-70
2022/11/28 10:40:51;;;;;;;25.25;17.50;;;;;;;5.15;100.00;96410.66;5003405;28;20045;-72
2022/11/28 10:43:23;;;;;;;28.65;18.77;;;;;;;5.28;100.00;96403.31;4995566;28;20042;-70
2022/11/28 10:46:08;;;;;;;27.17;17.63;;;;;;;5.73;100.00;96404.31;5003305;28;20042;-68
2022/11/28 10:48:46;;;;;;;23.92;17.13;;;;;;;5.92;100.00;96400.97;4983949;28;20128;-68
2022/11/28 10:51:25;;;;;;;24.13;15.95;;;;;;;5.78;100.00;96401.34;4987773;28;20096;-68
2022/11/28 10:54:37;;;;;;;24.27;16.55;;;;;;;5.54;100.00;96400.22;5003854;28;20430;-69
2022/11/28 10:57:14;;;;;;;24.75;15.82;;;;;;;5.88;100.00;96394.63;4973265;28;20038;-69
2022/11/28 10:59:58;;;;;;;23.45;15.95;;;;;;;6.29;100.00;96388.09;5005823;28;20060;-70
2022/11/28 11:02:39;;;;;;;23.33;15.35;;;;;;;6.32;100.00;96398.28;4999241;28;20357;-69
2022/11/28 11:05:05;;;;;;;23.77;15.13;;;;;;;6.32;100.00;96392.06;5001015;28;20614;-70
2022/11/28 11:07:32;;;;;;;24.05;17.38;;;;;;;6.05;100.00;96391.69;5004009;28;20078;-69
2022/11/28 11:10:21;;;;;;;26.10;17.65;;;;;;;6.16;100.00;96385.75;5004238;28;20038;-69
2022/11/28 11:12:50;;;;;;;26.67;17.67;;;;;;;6.42;100.00;96383.38;5003328;28;20101;-69
2022/11/28 11:15:19;;;;;;;22.77;15.60;;;;;;;6.26;100.00;96383.31;4997534;28;20077;-69
2022/11/28 11:17:45;;;;;;;20.13;15.73;;;;;;;6.13;100.00;96385.31;5002641;28;20525;-70
2022/11/28 11:20:19;;;;;;;25.88;16.65;;;;;;;6.27;100.00;96373.25;5000033;28;20045;-69
2022/11/28 11:22:54;;;;;;;24.73;16.27;;;;;;;6.35;100.00;96366.06;5006648;28;20585;-70
2022/11/28 11:25:21;;;;;;;21.15;15.13;;;;;;;6.54;100.00;96371.66;4994600;28;20053;-70
2022/11/28 11:27:50;;;;;;;22.05;15.98;;;;;;;6.81;100.00;96369.25;4988409;28;20070;-70
2022/11/28 11:30:31;;;;;;;19.58;14.55;;;;;;;6.96;100.00;96362.22;4984849;28;20458;-70
2022/11/28 11:32:59;;;;;;;20.60;14.88;;;;;;;6.65;100.00;96363.78;4996894;28;20110;-71
2022/11/28 11:35:34;;;;;;;23.80;15.32;;;;;;;6.29;100.00;96349.22;5003816;28;20050;-70